createdAt,value
2018-09-15T00:01:30.399Z,12.00
2018-09-15T00:05:38.554Z,12.00
2018-09-15T00:09:46.704Z,12.10
2018-09-15T00:13:54.849Z,12.10
2018-09-15T00:18:05.097Z,12.10
2018-09-15T00:22:13.241Z,12.20
2018-09-15T00:26:21.384Z,12.20
2018-09-15T00:30:29.552Z,12.20
2018-09-15T00:34:37.685Z,12.20
2018-09-15T00:38:45.840Z,12.30
2018-09-15T00:42:53.980Z,12.20
2018-09-15T00:47:02.116Z,12.30
2018-09-15T00:51:10.266Z,12.30
2018-09-15T00:55:18.404Z,12.10
2018-09-15T00:59:26.544Z,11.90
2018-09-15T01:03:34.680Z,11.80
2018-09-15T01:07:42.841Z,11.60
2018-09-15T01:11:50.979Z,11.50
2018-09-15T01:15:59.119Z,11.50
2018-09-15T01:20:07.292Z,11.40
2018-09-15T01:24:15.355Z,11.30
2018-09-15T01:28:24.220Z,11.30
2018-09-15T01:32:32.332Z,11.30
2018-09-15T01:36:40.460Z,11.30
2018-09-15T01:40:48.586Z,11.30
2018-09-15T01:53:12.563Z,11.10
2018-09-15T01:57:20.748Z,10.90
2018-09-15T02:01:28.831Z,10.80
2018-09-15T02:05:36.959Z,10.60
2018-09-15T02:09:45.125Z,10.50
2018-09-15T02:13:53.479Z,10.40
2018-09-15T02:18:01.623Z,10.20
2018-09-15T02:22:09.771Z,10.10
2018-09-15T02:26:17.947Z,10.00
2018-09-15T02:30:26.071Z,9.90
2018-09-15T02:34:34.193Z,9.90
2018-09-15T02:38:42.304Z,9.80
2018-09-15T02:46:58.324Z,9.60
2018-09-15T02:51:06.451Z,9.60
2018-09-15T02:55:14.580Z,9.50
2018-09-15T02:59:22.696Z,9.40
2018-09-15T03:03:30.819Z,9.40
2018-09-15T03:07:38.943Z,9.30
2018-09-15T03:11:47.043Z,9.20
2018-09-15T03:15:55.147Z,9.20
2018-09-15T03:20:03.382Z,9.10
2018-09-15T03:24:11.484Z,9.10
2018-09-15T03:28:19.593Z,9.00
2018-09-15T03:32:28.043Z,9.00
2018-09-15T03:36:36.135Z,8.90
2018-09-15T03:40:44.244Z,8.80
2018-09-15T03:49:00.256Z,8.80
2018-09-15T03:53:08.363Z,8.70
2018-09-15T03:57:16.475Z,8.70
2018-09-15T04:01:24.603Z,8.60
2018-09-15T04:05:32.731Z,8.60
2018-09-15T04:09:40.847Z,8.50
2018-09-15T04:17:56.862Z,8.50
2018-09-15T04:22:04.971Z,8.50
2018-09-15T04:26:13.093Z,8.50
2018-09-15T04:30:21.214Z,8.50
2018-09-15T04:34:29.367Z,8.40
2018-09-15T04:38:37.476Z,8.50
2018-09-15T04:42:45.573Z,8.50
2018-09-15T04:46:53.683Z,8.50
2018-09-15T04:55:09.685Z,8.40
2018-09-15T04:59:17.808Z,8.30
2018-09-15T05:03:25.949Z,8.30
2018-09-15T05:11:42.407Z,8.20
2018-09-15T05:15:50.880Z,8.20
2018-09-15T05:19:58.996Z,8.20
2018-09-15T05:24:07.116Z,8.20
2018-09-15T05:28:15.224Z,8.30
2018-09-15T05:32:23.343Z,8.30
2018-09-15T05:36:31.472Z,8.40
2018-09-15T05:40:39.588Z,8.50
2018-09-15T05:44:47.749Z,8.60
2018-09-15T05:48:55.863Z,8.60
2018-09-15T05:53:03.983Z,8.60
2018-09-15T05:57:12.099Z,8.60
2018-09-15T06:01:20.227Z,8.70
2018-09-15T06:05:28.379Z,8.80
2018-09-15T06:09:36.477Z,8.80
2018-09-15T06:13:44.683Z,9.00
2018-09-15T06:17:53.443Z,9.10
2018-09-15T06:22:01.571Z,9.30
2018-09-15T06:26:11.251Z,9.40
2018-09-15T06:30:19.379Z,9.60
2018-09-15T06:34:27.493Z,9.80
2018-09-15T06:38:35.612Z,10.00
2018-09-15T06:42:43.736Z,10.30
2018-09-15T06:46:51.855Z,10.60
2018-09-15T06:51:00.055Z,10.90
2018-09-15T06:55:08.295Z,11.00
2018-09-15T06:59:16.423Z,11.30
2018-09-15T07:03:24.560Z,11.80
2018-09-15T07:07:32.684Z,12.40
2018-09-15T07:11:40.796Z,13.00
2018-09-15T07:15:48.911Z,13.50
2018-09-15T07:19:57.045Z,14.00
2018-09-15T07:24:05.139Z,14.20
2018-09-15T07:28:13.283Z,14.30
2018-09-15T07:32:21.400Z,14.50
2018-09-15T07:36:29.625Z,14.60
2018-09-15T07:40:37.731Z,14.90
2018-09-15T07:44:45.878Z,15.20
2018-09-15T07:48:53.971Z,15.50
2018-09-15T07:53:02.247Z,15.90
2018-09-15T07:57:10.292Z,16.00
2018-09-15T08:01:18.432Z,16.10
2018-09-15T08:05:26.535Z,15.90
2018-09-15T08:09:34.648Z,16.00
2018-09-15T08:13:42.783Z,16.50
2018-09-15T08:17:50.910Z,17.10
2018-09-15T08:21:59.215Z,17.20
2018-09-15T08:26:07.361Z,17.10
2018-09-15T08:30:15.464Z,17.10
2018-09-15T08:34:23.588Z,17.30
2018-09-15T08:38:31.707Z,17.50
2018-09-15T08:42:39.871Z,17.60
2018-09-15T08:46:47.995Z,18.10
2018-09-15T08:50:56.127Z,18.10
2018-09-15T08:55:04.420Z,18.00
2018-09-15T08:59:12.567Z,18.10
2018-09-15T09:03:20.691Z,18.30
2018-09-15T09:07:28.887Z,18.60
2018-09-15T09:11:37.004Z,18.60
2018-09-15T09:15:45.115Z,18.80
2018-09-15T09:19:53.228Z,19.10
2018-09-15T09:24:01.331Z,19.20
2018-09-15T09:28:09.463Z,19.60
2018-09-15T09:32:17.638Z,19.80
2018-09-15T09:36:25.676Z,19.20
2018-09-15T09:40:33.784Z,19.40
2018-09-15T09:44:41.890Z,19.50
2018-09-15T09:48:50.003Z,19.50
2018-09-15T09:52:58.108Z,19.50
2018-09-15T09:57:07.219Z,19.90
2018-09-15T10:01:20.698Z,19.30
2018-09-15T10:05:28.760Z,19.00
2018-09-15T10:09:37.279Z,18.60
2018-09-15T10:13:45.483Z,18.50
2018-09-15T10:17:53.595Z,18.50
2018-09-15T10:22:01.735Z,18.90
2018-09-15T10:26:09.843Z,18.90
2018-09-15T10:30:17.959Z,19.40
2018-09-15T10:34:26.067Z,19.90
2018-09-15T10:38:34.245Z,19.70
2018-09-15T10:42:42.311Z,19.10
2018-09-15T10:46:50.420Z,18.70
2018-09-15T10:50:58.523Z,18.60
2018-09-15T10:55:06.747Z,18.90
2018-09-15T10:59:14.868Z,19.00
2018-09-15T11:03:23.400Z,18.90
2018-09-15T11:07:31.519Z,18.90
2018-09-15T11:11:39.744Z,18.90
2018-09-15T11:15:47.856Z,19.30
2018-09-15T11:19:55.984Z,19.70
2018-09-15T11:24:04.099Z,20.50
2018-09-15T11:28:12.248Z,21.20
2018-09-15T11:32:20.367Z,21.90
2018-09-15T11:36:28.479Z,22.10
2018-09-15T11:40:36.597Z,21.50
2018-09-15T11:44:44.716Z,20.90
2018-09-15T11:48:52.844Z,20.50
2018-09-15T11:53:00.983Z,20.20
2018-09-15T11:57:09.164Z,20.00
2018-09-15T12:01:17.296Z,20.10
2018-09-15T12:05:25.436Z,20.60
2018-09-15T12:09:33.567Z,21.70
2018-09-15T12:13:41.855Z,22.00
2018-09-15T12:17:49.979Z,21.60
2018-09-15T12:21:58.108Z,21.20
2018-09-15T12:26:06.231Z,21.10
2018-09-15T12:30:14.355Z,21.20
2018-09-15T12:34:22.479Z,21.60
2018-09-15T12:38:30.619Z,22.60
2018-09-15T12:42:38.756Z,22.60
2018-09-15T12:46:46.876Z,22.20
2018-09-15T12:50:55.035Z,21.80
2018-09-15T12:55:03.262Z,21.40
2018-09-15T12:59:11.354Z,21.20
2018-09-15T13:03:19.482Z,21.20
2018-09-15T13:07:27.608Z,21.10
2018-09-15T13:11:35.736Z,21.10
2018-09-15T13:15:43.870Z,20.90
2018-09-15T13:19:51.989Z,21.20
2018-09-15T13:24:00.126Z,21.10
2018-09-15T13:28:08.248Z,20.80
2018-09-15T13:32:16.394Z,20.70
2018-09-15T13:36:24.528Z,20.60
2018-09-15T13:40:32.705Z,20.60
2018-09-15T13:44:40.805Z,20.70
2018-09-15T13:48:48.936Z,20.60
2018-09-15T13:52:57.057Z,20.70
2018-09-15T13:57:05.202Z,20.80
2018-09-15T14:01:13.348Z,20.80
2018-09-15T14:05:21.479Z,20.70
2018-09-15T14:09:29.615Z,20.60
2018-09-15T14:13:37.728Z,20.40
2018-09-15T14:17:45.863Z,20.10
2018-09-15T14:21:53.976Z,20.10
2018-09-15T14:26:02.240Z,20.10
2018-09-15T14:30:10.367Z,20.60
2018-09-15T14:34:18.475Z,21.00
2018-09-15T14:38:26.595Z,21.00
2018-09-15T14:42:34.720Z,20.90
2018-09-15T14:46:42.848Z,20.60
2018-09-15T14:50:50.976Z,20.30
2018-09-15T14:54:59.092Z,20.10
2018-09-15T14:59:07.257Z,20.10
2018-09-15T15:03:15.744Z,20.00
2018-09-15T15:07:23.896Z,20.10
2018-09-15T15:11:32.024Z,20.00
2018-09-15T15:15:40.147Z,20.00
2018-09-15T15:19:48.287Z,20.00
2018-09-15T15:23:56.412Z,20.00
2018-09-15T15:28:04.709Z,20.00
2018-09-15T15:32:12.812Z,20.00
2018-09-15T15:36:20.941Z,19.70
2018-09-15T15:40:29.096Z,19.70
2018-09-15T15:44:37.223Z,19.60
2018-09-15T15:48:45.368Z,19.50
2018-09-15T15:52:53.532Z,19.50
2018-09-15T15:57:01.737Z,19.50
2018-09-15T16:01:09.784Z,19.60
2018-09-15T16:05:18.011Z,19.70
2018-09-15T16:09:26.411Z,19.90
2018-09-15T16:13:34.647Z,19.80
2018-09-15T16:17:42.759Z,19.80
2018-09-15T16:21:51.096Z,19.90
2018-09-15T16:25:59.268Z,19.80
2018-09-15T16:30:07.481Z,19.70
2018-09-15T16:34:15.596Z,19.70
2018-09-15T16:38:23.723Z,20.00
2018-09-15T16:42:31.844Z,20.20
2018-09-15T16:46:39.956Z,20.30
2018-09-15T16:50:48.100Z,20.10
2018-09-15T16:54:56.236Z,20.00
2018-09-15T16:59:04.359Z,19.80
2018-09-15T17:03:12.541Z,19.60
2018-09-15T17:07:20.660Z,19.40
2018-09-15T17:11:28.809Z,19.10
2018-09-15T17:15:37.081Z,18.90
2018-09-15T17:19:45.249Z,18.60
2018-09-15T17:23:53.411Z,18.40
2018-09-15T17:28:01.566Z,18.10
2018-09-15T17:32:09.738Z,17.80
2018-09-15T17:36:17.906Z,17.50
2018-09-15T17:40:26.095Z,17.20
2018-09-15T17:44:34.287Z,16.90
2018-09-15T17:48:42.446Z,16.60
2018-09-15T17:52:50.585Z,16.30
2018-09-15T17:56:58.762Z,16.00
2018-09-15T18:01:06.940Z,15.70
2018-09-15T18:05:15.105Z,15.40
2018-09-15T18:09:23.288Z,15.10
2018-09-15T18:13:31.424Z,14.90
2018-09-15T18:17:39.588Z,14.70
2018-09-15T18:21:47.762Z,14.50
2018-09-15T18:25:55.946Z,14.40
2018-09-15T18:30:04.413Z,14.20
2018-09-15T18:34:12.622Z,14.20
2018-09-15T18:38:20.797Z,14.10
2018-09-15T18:42:28.968Z,14.10
2018-09-15T18:46:37.135Z,14.00
2018-09-15T18:50:45.392Z,13.90
2018-09-15T18:54:53.657Z,13.80
2018-09-15T18:59:01.821Z,13.80
2018-09-15T19:03:14.399Z,13.70
2018-09-15T19:07:22.595Z,13.60
2018-09-15T19:11:30.767Z,13.50
2018-09-15T19:15:38.952Z,13.50
2018-09-15T19:19:47.114Z,13.40
2018-09-15T19:23:55.322Z,13.30
2018-09-15T19:28:03.504Z,13.20
2018-09-15T19:32:11.691Z,13.10
2018-09-15T19:36:19.904Z,13.00
2018-09-15T19:40:28.093Z,12.80
2018-09-15T19:44:36.338Z,12.70
2018-09-15T19:48:44.544Z,12.60
2018-09-15T19:52:52.726Z,12.50
2018-09-15T19:57:00.967Z,12.50
2018-09-15T20:01:09.147Z,12.40
2018-09-15T20:05:17.346Z,12.50
2018-09-15T20:09:25.534Z,12.50
2018-09-15T20:13:33.747Z,12.40
2018-09-15T20:17:40.942Z,12.40
2018-09-15T20:21:48.229Z,12.30
2018-09-15T20:25:56.394Z,12.20
2018-09-15T20:30:04.925Z,12.20
2018-09-15T20:34:13.148Z,12.10
2018-09-15T20:38:21.317Z,12.00
2018-09-15T20:42:29.513Z,12.00
2018-09-15T20:46:37.707Z,11.80
2018-09-15T20:50:45.904Z,11.80
2018-09-15T20:54:54.084Z,11.60
2018-09-15T20:59:02.262Z,11.50
2018-09-15T21:03:10.456Z,11.40
2018-09-15T21:07:18.626Z,11.30
2018-09-15T21:11:26.789Z,11.30
2018-09-15T21:15:34.983Z,11.30
2018-09-15T21:19:43.170Z,11.30
2018-09-15T21:23:51.430Z,11.20
2018-09-15T21:27:59.599Z,11.10
2018-09-15T21:32:07.757Z,11.10
2018-09-15T21:36:15.959Z,11.00
2018-09-15T21:40:24.120Z,11.00
2018-09-15T21:44:32.294Z,10.90
2018-09-15T21:48:40.462Z,10.80
2018-09-15T21:52:48.632Z,10.80
2018-09-15T21:56:56.817Z,10.70
2018-09-15T22:01:05.050Z,10.60
2018-09-15T22:05:13.225Z,10.50
2018-09-15T22:09:21.477Z,10.40
2018-09-15T22:13:29.582Z,10.40
2018-09-15T22:17:37.797Z,10.40
2018-09-15T22:21:45.965Z,10.30
2018-09-15T22:25:54.134Z,10.30
2018-09-15T22:30:02.309Z,10.30
2018-09-15T22:38:18.425Z,10.20
2018-09-15T22:42:26.592Z,10.10
2018-09-15T22:46:34.769Z,10.10
2018-09-15T22:50:42.938Z,10.00
2018-09-15T22:54:51.113Z,9.90
2018-09-15T22:58:59.287Z,9.80
2018-09-15T23:03:07.436Z,9.80
2018-09-15T23:07:15.653Z,9.70
2018-09-15T23:11:23.784Z,9.60
2018-09-15T23:15:31.907Z,9.60
2018-09-15T23:19:40.723Z,9.50
2018-09-15T23:23:48.944Z,9.50
2018-09-15T23:27:57.068Z,9.40
2018-09-15T23:32:05.189Z,9.40
2018-09-15T23:36:13.338Z,9.30
2018-09-15T23:40:21.458Z,9.20
2018-09-15T23:44:29.583Z,9.10
2018-09-15T23:48:37.733Z,9.10
2018-09-15T23:52:45.847Z,9.00
2018-09-15T23:56:53.971Z,9.00
